Loyal, WI

12:46 AM CDT on August 29, 2016 (GMT -0500)
Backyard, N. Andrews Ave | | Change Station

Elev 1161 ft 44.77 °N, 90.60 °W | Updated 1 second ago

Clear
Clear
64.6 °F
Feels Like 64.6 °F
N
0.0
Wind Variable Wind from North
Gusts 0.0 mph

Today
High -- | Low -- °F
--% Chance of Precip.
Yesterday
High -- | Low -- °F
Precip. -- in
Pressure 30.20 in
Visibility 9.0 miles
Clouds Clear
Dew Point 64 °F
Humidity 99%
Rainfall 0.00 in
Snow Depth Not available.
6:21 AM 7:43 PM
Waning Crescent, 11% visible
METAR KMFI 290454Z AUTO 00000KT 9SM CLR 18/17 A3021 RMK AO2 SLP227 T01830167
Pressure 30.20 in
Visibility 9.0 miles
Clouds Clear
Dew Point 64 °F
Humidity 99%
Rainfall 0.00 in
Snow Depth Not available.
6:21 AM 7:43 PM
Waning Crescent, 11% visible
METAR KMFI 290454Z AUTO 00000KT 9SM CLR 18/17 A3021 RMK AO2 SLP227 T01830167

10-Day Weather Forecast

Almanac

Astronomy

Aug. 29, 2016 Rise Set
Actual Time
Civil Twilight
Nautical Twilight
Astronomical Twilight
Moon
Length of Visible Light
Length of Day
Tomorrow will be .
, % of the Moon is Illuminated

Today's Extremes

State Highs State Lows

Community

WunderPhotos

Upload Photos

1,935,800 photos uploaded!

WunderBlog® & News

Nearby

Air Quality

  Air Quality AQ Index Pollutant
Not available.

Snow Depth

Station Depth Elevation

Earthquake Activity

City Distance Mag. Time & Date
Minimum magnitude displayed is 2.5.

Coastal Water Temperatures

Place Temperature

Stations

Nearby Weather Stations

Station Location Temp. Windchill Dew Point Humidity Wind Precip. Elev Updated Type
                   

Watches & Warnings

There are currently no watches in effect.